createdAt,value
2023-01-30T00:02:51.388Z,15.20
2023-01-30T00:08:01.369Z,18.60
2023-01-30T00:13:09.028Z,20.90
2023-01-30T00:18:23.380Z,19.50
2023-01-30T00:23:35.237Z,21.20
2023-01-30T00:28:46.123Z,19.70
2023-01-30T00:33:56.817Z,22.00
2023-01-30T00:39:06.936Z,19.60
2023-01-30T00:44:35.167Z,21.40
2023-01-30T00:49:49.418Z,18.50
2023-01-30T00:55:03.724Z,21.10
2023-01-30T01:00:14.274Z,21.60
2023-01-30T01:05:22.178Z,19.30
2023-01-30T01:10:32.659Z,19.40
2023-01-30T01:15:48.355Z,19.50
2023-01-30T01:21:00.174Z,16.80
2023-01-30T01:26:21.832Z,20.30
2023-01-30T01:31:32.365Z,18.80
2023-01-30T01:36:55.477Z,19.50
2023-01-30T01:42:05.449Z,17.10
2023-01-30T01:47:12.884Z,20.90
2023-01-30T01:52:25.280Z,20.10
2023-01-30T01:57:58.703Z,19.70
2023-01-30T02:03:16.983Z,18.60
2023-01-30T02:08:33.147Z,21.40
2023-01-30T02:13:41.423Z,20.20
2023-01-30T02:18:51.174Z,20.70
2023-01-30T02:24:39.771Z,23.50
2023-01-30T02:30:26.636Z,21.50
2023-01-30T02:35:46.129Z,21.80
2023-01-30T02:41:11.780Z,22.00
2023-01-30T02:46:27.468Z,21.20
2023-01-30T02:51:50.989Z,19.90
2023-01-30T02:57:03.764Z,19.90
2023-01-30T03:02:34.177Z,17.40
2023-01-30T03:08:08.998Z,16.50
2023-01-30T03:13:31.435Z,17.40
2023-01-30T03:18:42.021Z,16.60
2023-01-30T03:24:02.828Z,17.60
2023-01-30T03:29:13.749Z,18.40
2023-01-30T03:34:22.361Z,18.40
2023-01-30T03:39:32.847Z,19.40
2023-01-30T03:44:41.452Z,18.90
2023-01-30T03:49:53.961Z,18.60
2023-01-30T03:55:04.011Z,16.90
2023-01-30T04:00:21.146Z,17.30
2023-01-30T04:05:32.397Z,16.40
2023-01-30T04:10:48.805Z,16.40
2023-01-30T04:21:42.688Z,21.80
2023-01-30T04:26:51.253Z,33.00
2023-01-30T04:32:01.906Z,18.40
2023-01-30T04:37:26.764Z,18.10
2023-01-30T04:42:39.212Z,21.70
2023-01-30T04:48:10.997Z,18.40
2023-01-30T04:53:22.966Z,17.50
2023-01-30T04:58:40.646Z,24.50
2023-01-30T05:03:56.750Z,27.20
2023-01-30T05:09:06.827Z,24.10
2023-01-30T05:14:19.070Z,33.00
2023-01-30T05:19:27.492Z,24.10
2023-01-30T05:24:44.209Z,21.20
2023-01-30T05:29:52.460Z,19.40
2023-01-30T05:35:04.479Z,19.30
2023-01-30T05:40:23.360Z,21.10
2023-01-30T05:45:30.641Z,22.90
2023-01-30T05:50:44.294Z,19.20
2023-01-30T05:55:58.281Z,20.50
2023-01-30T06:01:11.835Z,18.20
2023-01-30T06:06:21.986Z,19.60
2023-01-30T06:11:32.892Z,22.00
2023-01-30T06:16:45.131Z,18.10
2023-01-30T06:21:57.868Z,18.80
2023-01-30T06:27:09.856Z,18.20
2023-01-30T06:32:19.410Z,17.80
2023-01-30T06:37:37.860Z,17.10
2023-01-30T06:42:54.833Z,15.90
2023-01-30T06:48:10.244Z,18.40
2023-01-30T06:53:21.150Z,18.10
2023-01-30T06:58:38.603Z,17.80
2023-01-30T07:03:50.055Z,33.70
2023-01-30T07:09:06.210Z,24.20
2023-01-30T07:19:39.075Z,18.10
2023-01-30T07:24:56.319Z,17.00
2023-01-30T07:30:15.937Z,20.90
2023-01-30T07:35:27.113Z,18.90
2023-01-30T07:40:37.559Z,22.60
2023-01-30T07:45:48.931Z,18.20
2023-01-30T07:56:19.588Z,26.10
2023-01-30T08:01:36.128Z,24.50
2023-01-30T08:06:44.770Z,23.30
2023-01-30T08:12:08.392Z,23.80
2023-01-30T08:17:18.901Z,24.80
2023-01-30T08:22:29.089Z,27.10
2023-01-30T08:27:43.115Z,26.90
2023-01-30T08:32:52.617Z,24.30
2023-01-30T08:38:18.234Z,23.80
2023-01-30T08:43:30.726Z,23.60
2023-01-30T08:48:49.973Z,21.20
2023-01-30T08:54:03.993Z,26.40
2023-01-30T08:59:14.843Z,24.00
2023-01-30T09:04:27.291Z,35.10
2023-01-30T09:09:39.923Z,32.60
2023-01-30T09:14:53.515Z,25.80
2023-01-30T09:20:09.512Z,29.80
2023-01-30T09:25:25.631Z,24.00
2023-01-30T09:30:36.011Z,21.90
2023-01-30T09:35:52.157Z,21.80
2023-01-30T09:41:16.391Z,19.10
2023-01-30T09:46:48.508Z,20.90
2023-01-30T09:52:09.900Z,22.70
2023-01-30T09:57:23.170Z,22.70
2023-01-30T10:02:59.287Z,24.70
2023-01-30T10:08:45.722Z,21.00
2023-01-30T10:14:24.001Z,16.90
2023-01-30T10:19:53.535Z,21.20
2023-01-30T10:25:14.528Z,23.10
2023-01-30T10:30:28.731Z,19.60
2023-01-30T10:35:41.035Z,22.30
2023-01-30T10:41:12.341Z,18.80
2023-01-30T10:46:48.627Z,20.10
2023-01-30T10:52:05.025Z,18.80
2023-01-30T10:57:37.251Z,19.50
2023-01-30T11:03:02.205Z,18.50
2023-01-30T11:08:31.251Z,21.80
2023-01-30T11:13:45.240Z,24.40
2023-01-30T11:24:41.200Z,17.40
2023-01-30T11:30:03.872Z,18.20
2023-01-30T11:35:40.550Z,30.10
2023-01-30T11:41:19.463Z,9.90
2023-01-30T11:46:36.933Z,8.50
2023-01-30T11:51:50.568Z,11.90
2023-01-30T11:57:05.653Z,12.80
2023-01-30T12:02:25.194Z,12.40
2023-01-30T12:07:47.002Z,10.90
2023-01-30T12:13:02.196Z,10.30
2023-01-30T12:18:20.908Z,8.30
2023-01-30T12:23:47.821Z,7.20
2023-01-30T12:29:16.117Z,5.70
2023-01-30T12:34:27.535Z,7.20
2023-01-30T12:45:17.369Z,5.50
2023-01-30T12:50:43.439Z,5.80
2023-01-30T12:56:23.993Z,5.70
2023-01-30T13:02:04.754Z,5.10
2023-01-30T13:07:33.893Z,5.10
2023-01-30T13:12:48.628Z,5.10
2023-01-30T13:18:15.897Z,6.00
2023-01-30T13:23:49.291Z,6.00
2023-01-30T13:29:06.125Z,4.80
2023-01-30T13:34:26.898Z,5.20
2023-01-30T13:39:42.872Z,4.20
2023-01-30T13:45:06.019Z,4.70
2023-01-30T13:50:38.483Z,3.90
2023-01-30T13:55:57.052Z,3.60
2023-01-30T14:01:23.711Z,3.40
2023-01-30T14:06:47.921Z,3.10
2023-01-30T14:12:04.073Z,4.10
2023-01-30T14:17:16.628Z,3.40
2023-01-30T14:22:38.293Z,3.40
2023-01-30T14:27:46.079Z,3.90
2023-01-30T14:32:58.935Z,4.20
2023-01-30T14:38:16.857Z,3.70
2023-01-30T14:43:53.035Z,3.70
2023-01-30T14:49:05.591Z,3.60
2023-01-30T14:59:37.953Z,2.80
2023-01-30T15:04:47.984Z,3.50
2023-01-30T15:09:58.790Z,3.60
2023-01-30T15:15:15.208Z,3.00
2023-01-30T15:20:32.465Z,3.10
2023-01-30T15:25:55.514Z,3.10
2023-01-30T15:31:10.330Z,2.70
2023-01-30T15:36:39.030Z,3.00
2023-01-30T15:41:46.579Z,3.20
2023-01-30T15:47:02.190Z,3.20
2023-01-30T15:52:15.478Z,3.20
2023-01-30T15:57:26.793Z,6.70
2023-01-30T16:02:36.560Z,4.50
2023-01-30T16:07:45.386Z,5.10
2023-01-30T16:12:57.959Z,3.70
2023-01-30T16:18:16.697Z,3.50
2023-01-30T16:23:27.072Z,4.30
2023-01-30T16:28:35.131Z,4.50
2023-01-30T16:33:42.166Z,4.80
2023-01-30T16:38:50.830Z,4.10
2023-01-30T16:44:11.884Z,3.20
2023-01-30T16:49:23.792Z,9.30
2023-01-30T16:54:36.723Z,4.20
2023-01-30T16:59:53.451Z,5.20
2023-01-30T17:05:22.893Z,3.10
2023-01-30T17:11:06.871Z,4.00
2023-01-30T17:16:43.254Z,2.80
2023-01-30T17:21:54.980Z,3.70
2023-01-30T17:32:16.385Z,3.60
2023-01-30T17:37:24.057Z,3.70
2023-01-30T17:42:31.238Z,3.10
2023-01-30T17:47:38.228Z,3.20
2023-01-30T17:52:45.375Z,3.20
2023-01-30T17:57:53.107Z,3.70
2023-01-30T18:03:00.142Z,3.00
2023-01-30T18:08:07.656Z,2.70
2023-01-30T18:13:15.011Z,4.40
2023-01-30T18:18:23.503Z,3.70
2023-01-30T18:23:30.770Z,4.20
2023-01-30T18:28:41.036Z,4.30
2023-01-30T18:33:48.429Z,4.80
2023-01-30T18:38:55.924Z,3.60
2023-01-30T18:44:05.362Z,2.60
2023-01-30T18:49:12.569Z,3.30
2023-01-30T18:54:19.728Z,4.30
2023-01-30T18:59:27.538Z,2.10
2023-01-30T19:04:34.592Z,3.60
2023-01-30T19:10:00.205Z,2.30
2023-01-30T19:15:11.941Z,3.90
2023-01-30T19:20:25.894Z,3.50
2023-01-30T19:25:35.472Z,2.90
2023-01-30T19:30:45.840Z,3.60
2023-01-30T19:35:56.985Z,2.70
2023-01-30T19:41:11.690Z,2.90
2023-01-30T19:46:22.243Z,3.70
2023-01-30T19:51:32.525Z,4.10
2023-01-30T19:56:48.487Z,2.60
2023-01-30T20:01:56.296Z,3.00
2023-01-30T20:07:08.677Z,3.00
2023-01-30T20:12:16.781Z,2.70
2023-01-30T20:17:27.244Z,3.20
2023-01-30T20:22:37.815Z,3.30
2023-01-30T20:27:50.180Z,3.90
2023-01-30T20:33:04.857Z,2.70
2023-01-30T20:38:16.438Z,3.10
2023-01-30T20:43:27.281Z,2.90
2023-01-30T20:48:34.962Z,3.40
2023-01-30T20:53:52.737Z,3.60
2023-01-30T20:59:00.689Z,4.00
2023-01-30T21:04:13.853Z,4.10
2023-01-30T21:09:33.397Z,4.40
2023-01-30T21:14:46.811Z,4.30
2023-01-30T21:19:55.151Z,3.50
2023-01-30T21:25:07.276Z,4.20
2023-01-30T21:30:30.593Z,4.20
2023-01-30T21:35:42.887Z,4.40
2023-01-30T21:41:15.015Z,4.60
2023-01-30T21:46:30.404Z,3.70
2023-01-30T21:51:41.829Z,4.00
2023-01-30T21:56:51.375Z,4.20
2023-01-30T22:02:05.216Z,3.40
2023-01-30T22:07:19.175Z,5.10
2023-01-30T22:12:36.619Z,4.70
2023-01-30T22:17:51.308Z,5.10
2023-01-30T22:23:00.948Z,4.30
2023-01-30T22:28:10.733Z,4.70
2023-01-30T22:33:18.311Z,5.80
2023-01-30T22:38:29.401Z,4.90
2023-01-30T22:43:46.677Z,4.00
2023-01-30T22:48:55.958Z,3.90
2023-01-30T22:54:08.275Z,3.80
2023-01-30T22:59:18.716Z,3.30
2023-01-30T23:04:32.602Z,3.40
2023-01-30T23:09:42.028Z,2.50
2023-01-30T23:14:54.933Z,3.60
2023-01-30T23:20:07.989Z,3.30
2023-01-30T23:25:20.872Z,4.30
2023-01-30T23:30:33.110Z,4.00
2023-01-30T23:35:44.109Z,5.30
2023-01-30T23:40:53.906Z,5.10
2023-01-30T23:46:23.619Z,5.50
2023-01-30T23:51:32.883Z,5.10
2023-01-30T23:56:42.210Z,5.30
